CYTZ

Toronto/Billy Bishop Toronto City Airport

Airport
ICAO code
CYTZ
IATA Code
YTZ
Summary
ICAO Region
NAM
ICAO Territory
Location

Toronto, Ontario,

Serving
Toronto
Elevation
252 ft
Coordinates
43° 37' 42" N , 79° 23' 46" W
KCC
Airport WX
Lake Effect Snow
Metar
Observation
CYTZ 062100Z AUTO 20009KT 9SM FEW110 19/12 A2988 RMK SLP122 DENSITY ALT 800FT
Station
Toronto Island Airport Automated Reporting Station
Date/Time
2022-10-06 21:00:00
Wind direction
200°
Wind speed
09 kts
Lowest cloud amount
few clouds
Temperature
19°C
Dew point
12°C
Humidity
63%
Weather condition
n/a

Description

The Billy Bishop Toronto City Airport, more commonly known as the Toronto Island Airport and previously known officially as Toronto City Centre Airport, is a small airport located on the Toronto Islands in Toronto, Ontario, Canada.

Climatology

Humid continental climate (Köppen climate classification Dfa) - characterized by four seasons: cold, windy, snowy winters, mild springs, hot, humid summers, and crisp and relatively short autumns. Precipitation reaches its lowest in January and February and peaks in summer and latter half of spring.

Runways

Designator Length Width Surface Rops
15/33 847 46 ASP Yes/Yes
6/24 894 46 ASP Yes/Yes
8/26 1216 46 ASP Yes/Yes

Airport map

Aerial View

SKYbrary Partners:

Safety knowledge contributed by: